createdAt,value
2023-03-04T00:02:24.681Z,99031.17
2023-03-04T00:04:52.943Z,99028.11
2023-03-04T00:07:21.056Z,99029.87
2023-03-04T00:09:53.397Z,99027.06
2023-03-04T00:12:21.833Z,99022.45
2023-03-04T00:14:50.038Z,99021.90
2023-03-04T00:17:26.349Z,99019.52
2023-03-04T00:19:55.238Z,99017.69
2023-03-04T00:22:24.165Z,99011.11
2023-03-04T00:24:54.031Z,99007.76
2023-03-04T00:27:23.187Z,99010.02
2023-03-04T00:29:51.315Z,99014.70
2023-03-04T00:32:19.547Z,99016.17
2023-03-04T00:34:47.679Z,99012.62
2023-03-04T00:37:15.697Z,99011.06
2023-03-04T00:39:45.469Z,99009.25
2023-03-04T00:42:16.629Z,99003.36
2023-03-04T00:44:44.647Z,98993.06
2023-03-04T00:47:13.095Z,98988.78
2023-03-04T00:49:41.963Z,98996.35
2023-03-04T00:52:10.768Z,98997.12
2023-03-04T00:54:42.977Z,98991.79
2023-03-04T00:57:11.289Z,98988.61
2023-03-04T00:59:40.946Z,98982.61
2023-03-04T01:02:09.060Z,98980.11
2023-03-04T01:04:38.236Z,98972.69
2023-03-04T01:07:06.727Z,98970.98
2023-03-04T01:09:36.435Z,98969.41
2023-03-04T01:12:06.229Z,98963.83
2023-03-04T01:14:34.886Z,98964.60
2023-03-04T01:17:06.243Z,98965.55
2023-03-04T01:19:34.877Z,98958.13
2023-03-04T01:22:03.283Z,98960.47
2023-03-04T01:24:32.051Z,98954.23
2023-03-04T01:27:00.110Z,98951.83
2023-03-04T01:29:32.372Z,98953.89
2023-03-04T01:32:00.574Z,98949.91
2023-03-04T01:34:29.031Z,98946.27
2023-03-04T01:36:58.618Z,98947.32
2023-03-04T01:39:26.900Z,98950.04
2023-03-04T01:41:56.657Z,98946.52
2023-03-04T01:44:24.742Z,98946.09
2023-03-04T01:46:57.006Z,98941.54
2023-03-04T01:49:26.706Z,98940.61
2023-03-04T01:51:54.937Z,98937.86
2023-03-04T01:54:23.149Z,98933.28
2023-03-04T01:56:51.788Z,98924.48
2023-03-04T01:59:24.960Z,98923.55
2023-03-04T02:01:55.103Z,98926.17
2023-03-04T02:04:34.528Z,98919.69
2023-03-04T02:07:03.809Z,98919.37
2023-03-04T02:09:32.025Z,98917.64
2023-03-04T02:12:01.237Z,98915.89
2023-03-04T02:14:29.563Z,98916.52
2023-03-04T02:16:57.742Z,98921.10
2023-03-04T02:20:01.372Z,98920.56
2023-03-04T02:22:30.095Z,98921.04
2023-03-04T02:25:01.325Z,98918.70
2023-03-04T02:27:29.788Z,98912.90
2023-03-04T02:29:57.890Z,98909.14
2023-03-04T02:32:26.015Z,98907.80
2023-03-04T02:34:55.816Z,98911.95
2023-03-04T02:37:23.805Z,98907.98
2023-03-04T02:39:53.308Z,98910.36
2023-03-04T02:42:21.566Z,98912.10
2023-03-04T02:44:59.845Z,98902.42
2023-03-04T02:47:28.060Z,98886.05
2023-03-04T02:49:56.377Z,98878.88
2023-03-04T02:52:33.535Z,98878.16
2023-03-04T02:55:02.343Z,98878.73
2023-03-04T02:57:31.075Z,98872.34
2023-03-04T02:59:59.118Z,98875.23
2023-03-04T03:02:29.254Z,98872.61
2023-03-04T03:04:57.946Z,98875.09
2023-03-04T03:07:28.587Z,98869.74
2023-03-04T03:09:57.271Z,98858.82
2023-03-04T03:12:25.768Z,98859.31
2023-03-04T03:14:53.868Z,98865.44
2023-03-04T03:17:22.152Z,98853.35
2023-03-04T03:19:50.628Z,98859.25
2023-03-04T03:22:18.903Z,98860.10
2023-03-04T03:24:47.250Z,98850.86
2023-03-04T03:27:15.446Z,98854.18
2023-03-04T03:29:45.124Z,98854.35
2023-03-04T03:32:13.297Z,98848.09
2023-03-04T03:34:42.487Z,98845.98
2023-03-04T03:37:11.018Z,98847.48
2023-03-04T03:39:43.007Z,98841.25
2023-03-04T03:42:11.104Z,98841.61
2023-03-04T03:44:39.337Z,98840.36
2023-03-04T03:47:08.041Z,98835.10
2023-03-04T03:49:36.142Z,98833.21
2023-03-04T03:52:04.342Z,98835.66
2023-03-04T03:54:33.182Z,98832.44
2023-03-04T03:57:06.801Z,98823.23
2023-03-04T03:59:36.792Z,98818.89
2023-03-04T04:02:04.997Z,98813.52
2023-03-04T04:04:33.933Z,98804.03
2023-03-04T04:07:02.042Z,98792.84
2023-03-04T04:09:30.898Z,98805.39
2023-03-04T04:11:58.980Z,98799.54
2023-03-04T04:14:33.079Z,98799.80
2023-03-04T04:17:01.131Z,98793.59
2023-03-04T04:19:29.762Z,98791.63
2023-03-04T04:21:57.904Z,98776.23
2023-03-04T04:24:26.435Z,98772.50
2023-03-04T04:27:01.698Z,98766.95
2023-03-04T04:29:29.992Z,98754.27
2023-03-04T04:31:58.440Z,98758.48
2023-03-04T04:34:26.633Z,98756.48
2023-03-04T04:36:54.975Z,98751.52
2023-03-04T04:39:23.204Z,98738.77
2023-03-04T04:41:51.776Z,98728.17
2023-03-04T04:44:19.791Z,98725.96
2023-03-04T04:46:47.873Z,98715.46
2023-03-04T04:49:15.967Z,98716.80
2023-03-04T04:51:45.666Z,98712.00
2023-03-04T04:54:14.126Z,98713.86
2023-03-04T04:56:42.346Z,98718.52
2023-03-04T04:59:10.441Z,98709.62
2023-03-04T05:01:39.385Z,98701.93
2023-03-04T05:04:07.669Z,98697.65
2023-03-04T05:06:35.905Z,98694.64
2023-03-04T05:09:04.628Z,98694.49
2023-03-04T05:11:33.005Z,98688.66
2023-03-04T05:14:03.072Z,98690.12
2023-03-04T05:16:31.538Z,98683.68
2023-03-04T05:18:59.594Z,98671.97
2023-03-04T05:21:27.717Z,98669.93
2023-03-04T05:23:55.809Z,98666.66
2023-03-04T05:26:25.128Z,98665.06
2023-03-04T05:28:53.439Z,98664.00
2023-03-04T05:31:21.602Z,98661.02
2023-03-04T05:33:50.303Z,98657.98
2023-03-04T05:36:18.292Z,98660.95
2023-03-04T05:38:46.953Z,98656.64
2023-03-04T05:41:14.928Z,98649.52
2023-03-04T05:43:43.804Z,98632.41
2023-03-04T05:46:16.040Z,98659.30
2023-03-04T05:48:44.919Z,98641.81
2023-03-04T05:51:13.285Z,98646.81
2023-03-04T05:53:41.635Z,98640.21
2023-03-04T05:56:14.638Z,98640.10
2023-03-04T05:58:43.466Z,98642.23
2023-03-04T06:01:12.119Z,98634.13
2023-03-04T06:03:40.387Z,98630.95
2023-03-04T06:06:08.496Z,98628.22
2023-03-04T06:08:37.477Z,98628.86
2023-03-04T06:11:05.860Z,98626.23
2023-03-04T06:13:38.148Z,98622.48
2023-03-04T06:16:07.150Z,98614.91
2023-03-04T06:18:35.451Z,98610.57
2023-03-04T06:21:07.135Z,98610.35
2023-03-04T06:23:35.217Z,98597.70
2023-03-04T06:26:03.329Z,98599.11
2023-03-04T06:28:31.949Z,98595.61
2023-03-04T06:31:00.355Z,98596.14
2023-03-04T06:33:32.772Z,98601.17
2023-03-04T06:36:00.961Z,98596.23
2023-03-04T06:38:29.462Z,98594.72
2023-03-04T06:40:57.787Z,98599.46
2023-03-04T06:43:26.197Z,98600.97
2023-03-04T06:45:55.472Z,98594.06
2023-03-04T06:48:23.995Z,98591.20
2023-03-04T06:50:52.078Z,98592.41
2023-03-04T06:53:23.511Z,98587.73
2023-03-04T06:55:55.584Z,98584.71
2023-03-04T06:58:24.018Z,98582.10
2023-03-04T07:00:52.090Z,98587.45
2023-03-04T07:03:20.851Z,98581.67
2023-03-04T07:05:49.226Z,98571.34
2023-03-04T07:08:21.677Z,98573.50
2023-03-04T07:10:52.208Z,98567.91
2023-03-04T07:13:20.578Z,98563.50
2023-03-04T07:15:54.040Z,98558.30
2023-03-04T07:18:22.653Z,98554.31
2023-03-04T07:20:55.136Z,98546.16
2023-03-04T07:23:24.575Z,98547.17
2023-03-04T07:25:52.839Z,98533.70
2023-03-04T07:28:21.589Z,98522.30
2023-03-04T07:30:52.960Z,98537.66
2023-03-04T07:33:20.962Z,98528.98
2023-03-04T07:35:49.455Z,98529.14
2023-03-04T07:38:17.482Z,98523.27
2023-03-04T07:40:45.699Z,98531.55
2023-03-04T07:43:14.575Z,98521.38
2023-03-04T07:45:43.473Z,98511.83
2023-03-04T07:48:12.516Z,98512.84
2023-03-04T07:50:40.754Z,98511.56
2023-03-04T07:53:09.653Z,98510.03
2023-03-04T07:55:37.850Z,98504.00
2023-03-04T07:58:05.885Z,98510.66
2023-03-04T08:00:35.239Z,98503.25
2023-03-04T08:03:04.494Z,98505.17
2023-03-04T08:05:36.161Z,98493.80
2023-03-04T08:08:07.554Z,98507.73
2023-03-04T08:10:36.367Z,98502.66
2023-03-04T08:13:05.399Z,98505.39
2023-03-04T08:15:35.371Z,98494.80
2023-03-04T08:18:06.093Z,98500.25
2023-03-04T08:20:34.968Z,98496.39
2023-03-04T08:23:05.949Z,98490.44
2023-03-04T08:25:41.660Z,98496.18
2023-03-04T08:28:10.015Z,98493.08
2023-03-04T08:30:38.379Z,98490.45
2023-03-04T08:33:11.218Z,98495.84
2023-03-04T08:35:39.841Z,98494.84
2023-03-04T08:38:14.947Z,98490.52
2023-03-04T08:40:44.106Z,98488.50
2023-03-04T08:43:13.066Z,98495.02
2023-03-04T08:45:42.416Z,98499.71
2023-03-04T08:48:11.562Z,98493.05
2023-03-04T08:50:39.898Z,98499.41
2023-03-04T08:53:08.016Z,98502.13
2023-03-04T08:55:38.394Z,98491.92
2023-03-04T08:58:07.329Z,98490.05
2023-03-04T09:00:36.438Z,98489.74
2023-03-04T09:03:24.364Z,98483.86
2023-03-04T09:05:54.676Z,98477.14
2023-03-04T09:08:25.480Z,98484.59
2023-03-04T09:10:54.114Z,98478.94
2023-03-04T09:13:26.140Z,98474.94
2023-03-04T09:15:56.413Z,98467.34
2023-03-04T09:18:24.890Z,98464.52
2023-03-04T09:20:53.041Z,98467.81
2023-03-04T09:23:22.525Z,98463.42
2023-03-04T09:25:50.678Z,98461.66
2023-03-04T09:28:44.581Z,98461.37
2023-03-04T09:31:14.143Z,98461.83
2023-03-04T09:33:43.542Z,98455.83
2023-03-04T09:36:12.825Z,98449.16
2023-03-04T09:38:43.855Z,98454.19
2023-03-04T09:41:26.280Z,98456.26
2023-03-04T09:43:54.829Z,98448.45
2023-03-04T09:46:29.951Z,98451.56
2023-03-04T09:48:58.091Z,98453.52
2023-03-04T09:51:35.740Z,98433.95
2023-03-04T09:54:09.851Z,98448.41
2023-03-04T09:56:39.630Z,98449.60
2023-03-04T09:59:14.529Z,98452.95
2023-03-04T10:01:50.853Z,98440.39
2023-03-04T10:04:40.923Z,98438.22
2023-03-04T10:07:18.446Z,98445.95
2023-03-04T10:09:50.312Z,98442.20
2023-03-04T10:12:23.706Z,98445.36
2023-03-04T10:15:02.527Z,98443.38
2023-03-04T10:17:39.101Z,98444.50
2023-03-04T10:20:15.736Z,98439.80
2023-03-04T10:22:46.405Z,98434.27
2023-03-04T10:25:30.967Z,98421.16
2023-03-04T10:28:05.164Z,98421.59
2023-03-04T10:30:51.295Z,98419.63
2023-03-04T10:33:21.312Z,98429.41
2023-03-04T10:36:01.431Z,98425.15
2023-03-04T10:38:39.359Z,98417.11
2023-03-04T10:41:16.341Z,98415.73
2023-03-04T10:44:00.639Z,98418.73
2023-03-04T10:46:30.955Z,98411.18
2023-03-04T10:49:02.212Z,98413.27
2023-03-04T10:51:31.010Z,98420.76
2023-03-04T10:54:03.672Z,98406.93
2023-03-04T10:56:42.957Z,98397.98
2023-03-04T10:59:53.750Z,98394.67
2023-03-04T11:02:35.089Z,98397.91
2023-03-04T11:05:05.891Z,98370.97
2023-03-04T11:07:54.632Z,98369.45
2023-03-04T11:10:26.286Z,98366.48
2023-03-04T11:13:24.557Z,98360.49
2023-03-04T11:15:58.288Z,98355.77
2023-03-04T11:18:38.418Z,98357.77
2023-03-04T11:21:30.667Z,98363.83
2023-03-04T11:24:08.181Z,98355.66
2023-03-04T11:26:42.377Z,98365.22
2023-03-04T11:29:40.947Z,98356.85
2023-03-04T11:32:15.681Z,98337.98
2023-03-04T11:35:06.829Z,98344.31
2023-03-04T11:37:46.763Z,98341.73
2023-03-04T11:40:37.384Z,98340.11
2023-03-04T11:43:15.198Z,98338.41
2023-03-04T11:46:11.637Z,98337.05
2023-03-04T11:48:58.931Z,98343.33
2023-03-04T11:51:35.494Z,98343.35
2023-03-04T11:54:06.426Z,98333.89
2023-03-04T11:56:45.630Z,98329.33
2023-03-04T11:59:49.183Z,98318.77
2023-03-04T12:02:22.644Z,98311.31
2023-03-04T12:05:01.863Z,98320.92
2023-03-04T12:07:55.472Z,98323.20
2023-03-04T12:10:30.608Z,98322.91
2023-03-04T12:13:20.433Z,98316.05
2023-03-04T12:16:22.636Z,98315.39
2023-03-04T12:19:08.623Z,98318.24
2023-03-04T12:22:00.161Z,98325.80
2023-03-04T12:24:34.118Z,98320.91
2023-03-04T12:27:22.690Z,98316.95
2023-03-04T12:30:00.359Z,98314.71
2023-03-04T12:32:43.375Z,98318.90
2023-03-04T12:35:36.724Z,98313.30
2023-03-04T12:38:32.281Z,98312.70
2023-03-04T12:41:19.490Z,98319.46
2023-03-04T12:44:13.866Z,98322.75
2023-03-04T12:47:08.788Z,98316.42
2023-03-04T12:49:57.068Z,98330.04
2023-03-04T12:52:29.327Z,98307.14
2023-03-04T12:54:59.140Z,98308.05
2023-03-04T12:57:31.973Z,98315.11
2023-03-04T13:00:22.295Z,98309.27
2023-03-04T13:03:04.698Z,98306.97
2023-03-04T13:05:49.914Z,98319.08
2023-03-04T13:08:25.058Z,98301.86
2023-03-04T13:11:04.203Z,98314.70
2023-03-04T13:13:32.776Z,98314.36
2023-03-04T13:16:43.576Z,98312.91
2023-03-04T13:19:42.994Z,98308.90
2023-03-04T13:22:33.243Z,98308.45
2023-03-04T13:25:27.670Z,98307.15
2023-03-04T13:28:02.989Z,98316.13
2023-03-04T13:30:31.587Z,98327.61
2023-03-04T13:33:08.281Z,98314.11
2023-03-04T13:35:49.686Z,98324.53
2023-03-04T13:38:28.365Z,98308.42
2023-03-04T13:41:08.997Z,98310.16
2023-03-04T13:43:43.298Z,98308.39
2023-03-04T13:46:20.475Z,98304.92
2023-03-04T13:48:51.712Z,98300.23
2023-03-04T13:51:30.643Z,98292.92
2023-03-04T13:53:58.929Z,98275.36
2023-03-04T13:56:37.635Z,98281.38
2023-03-04T13:59:09.738Z,98275.98
2023-03-04T14:01:41.044Z,98265.05
2023-03-04T14:04:34.746Z,98266.32
2023-03-04T14:07:20.795Z,98269.45
2023-03-04T14:10:05.303Z,98269.25
2023-03-04T14:12:35.679Z,98261.94
2023-03-04T14:15:05.115Z,98262.84
2023-03-04T14:17:37.125Z,98262.31
2023-03-04T14:20:18.161Z,98268.14
2023-03-04T14:22:46.195Z,98274.45
2023-03-04T14:25:14.513Z,98278.46
2023-03-04T14:27:46.223Z,98271.35
2023-03-04T14:30:31.747Z,98283.16
2023-03-04T14:33:09.090Z,98279.27
2023-03-04T14:35:41.292Z,98276.71
2023-03-04T14:38:33.360Z,98268.71
2023-03-04T14:41:07.764Z,98275.66
2023-03-04T14:43:58.063Z,98275.94
2023-03-04T14:46:29.269Z,98273.64
2023-03-04T14:48:57.452Z,98267.13
2023-03-04T14:51:41.954Z,98267.29
2023-03-04T14:54:31.218Z,98264.19
2023-03-04T14:57:15.763Z,98266.05
2023-03-04T14:59:44.388Z,98260.88
2023-03-04T15:02:49.152Z,98259.77
2023-03-04T15:05:26.339Z,98261.05
2023-03-04T15:08:02.051Z,98253.05
2023-03-04T15:10:35.758Z,98255.29
2023-03-04T15:13:08.253Z,98256.14
2023-03-04T15:15:41.556Z,98255.13
2023-03-04T15:18:24.145Z,98264.41
2023-03-04T15:21:00.305Z,98265.96
2023-03-04T15:23:31.220Z,98263.08
2023-03-04T15:26:02.073Z,98264.31
2023-03-04T15:28:33.793Z,98262.23
2023-03-04T15:31:02.067Z,98264.27
2023-03-04T15:33:30.269Z,98265.01
2023-03-04T15:36:00.466Z,98265.12
2023-03-04T15:38:28.846Z,98260.38
2023-03-04T15:40:59.780Z,98261.17
2023-03-04T15:43:28.284Z,98258.40
2023-03-04T15:45:56.446Z,98269.02
2023-03-04T15:48:27.722Z,98259.15
2023-03-04T15:51:00.898Z,98258.23
2023-03-04T15:53:33.149Z,98257.45
2023-03-04T15:56:03.259Z,98251.75
2023-03-04T15:58:35.026Z,98248.28
2023-03-04T16:01:05.921Z,98252.40
2023-03-04T16:03:34.642Z,98260.77
2023-03-04T16:06:02.877Z,98259.39
2023-03-04T16:08:32.554Z,98259.38
2023-03-04T16:11:00.613Z,98250.48
2023-03-04T16:13:28.901Z,98259.02
2023-03-04T16:15:57.715Z,98254.48
2023-03-04T16:18:26.100Z,98246.64
2023-03-04T16:20:54.810Z,98247.88
2023-03-04T16:23:24.991Z,98252.47
2023-03-04T16:25:55.728Z,98258.61
2023-03-04T16:28:25.503Z,98250.82
2023-03-04T16:30:54.439Z,98242.71
2023-03-04T16:33:22.866Z,98246.72
2023-03-04T16:35:52.971Z,98251.73
2023-03-04T16:38:28.168Z,98245.72
2023-03-04T16:41:02.333Z,98237.53
2023-03-04T16:43:34.174Z,98234.55
2023-03-04T16:46:02.471Z,98237.70
2023-03-04T16:48:30.950Z,98243.38
2023-03-04T16:50:59.619Z,98229.02
2023-03-04T16:53:38.346Z,98226.66
2023-03-04T16:56:11.384Z,98219.52
2023-03-04T16:58:40.518Z,98217.92
2023-03-04T17:01:20.103Z,98232.77
2023-03-04T17:03:48.215Z,98216.92
2023-03-04T17:06:17.230Z,98215.14
2023-03-04T17:08:45.618Z,98216.48
2023-03-04T17:11:22.937Z,98219.81
2023-03-04T17:13:52.952Z,98210.36
2023-03-04T17:16:21.531Z,98208.44
2023-03-04T17:18:57.785Z,98203.79
2023-03-04T17:21:26.704Z,98207.43
2023-03-04T17:23:55.045Z,98208.66
2023-03-04T17:26:24.178Z,98206.26
2023-03-04T17:28:52.422Z,98201.35
2023-03-04T17:31:20.822Z,98197.99
2023-03-04T17:33:49.652Z,98193.61
2023-03-04T17:36:18.509Z,98191.01
2023-03-04T17:38:46.570Z,98198.52
2023-03-04T17:41:17.491Z,98190.20
2023-03-04T17:43:51.744Z,98189.73
2023-03-04T17:46:22.214Z,98197.48
2023-03-04T17:48:55.405Z,98180.25
2023-03-04T17:51:37.151Z,98184.63
2023-03-04T17:54:05.997Z,98184.36
2023-03-04T17:56:41.721Z,98185.06
2023-03-04T17:59:14.920Z,98183.88
2023-03-04T18:01:45.294Z,98176.47
2023-03-04T18:04:14.178Z,98176.60
2023-03-04T18:06:42.676Z,98176.11
2023-03-04T18:09:13.226Z,98173.48
2023-03-04T18:11:41.522Z,98163.67
2023-03-04T18:14:11.333Z,98166.23
2023-03-04T18:16:43.202Z,98160.84
2023-03-04T18:19:11.372Z,98157.31
2023-03-04T18:21:44.494Z,98152.51
2023-03-04T18:24:12.919Z,98165.95
2023-03-04T18:26:41.510Z,98162.91
2023-03-04T18:29:10.619Z,98163.70
2023-03-04T18:31:38.737Z,98162.86
2023-03-04T18:34:06.781Z,98166.27
2023-03-04T18:36:34.912Z,98169.46
2023-03-04T18:39:05.378Z,98154.48
2023-03-04T18:41:33.963Z,98146.27
2023-03-04T18:44:02.028Z,98147.60
2023-03-04T18:46:40.402Z,98161.27
2023-03-04T18:49:09.431Z,98158.05
2023-03-04T18:51:40.655Z,98146.32
2023-03-04T18:54:08.934Z,98146.05
2023-03-04T18:56:56.113Z,98141.84
2023-03-04T18:59:31.454Z,98144.77
2023-03-04T19:02:03.898Z,98149.63
2023-03-04T19:04:32.035Z,98142.27
2023-03-04T19:07:00.488Z,98139.19
2023-03-04T19:09:28.728Z,98137.81
2023-03-04T19:11:56.920Z,98149.96
2023-03-04T19:14:25.670Z,98130.07
2023-03-04T19:16:54.866Z,98127.73
2023-03-04T19:19:22.989Z,98138.44
2023-03-04T19:21:51.223Z,98138.59
2023-03-04T19:24:19.348Z,98119.87
2023-03-04T19:26:54.778Z,98115.64
2023-03-04T19:29:22.943Z,98124.84
2023-03-04T19:31:51.226Z,98105.10
2023-03-04T19:34:19.277Z,98115.86
2023-03-04T19:36:47.650Z,98108.28
2023-03-04T19:39:17.047Z,98103.48
2023-03-04T19:41:45.556Z,98099.43
2023-03-04T19:44:13.678Z,98098.27
2023-03-04T19:46:42.693Z,98097.12
2023-03-04T19:49:10.778Z,98102.09
2023-03-04T19:51:39.718Z,98099.29
2023-03-04T19:54:08.055Z,98093.16
2023-03-04T19:56:36.383Z,98093.84
2023-03-04T19:59:04.480Z,98092.84
2023-03-04T20:01:36.488Z,98085.33
2023-03-04T20:04:08.405Z,98093.08
2023-03-04T20:06:44.216Z,98081.21
2023-03-04T20:09:12.950Z,98080.91
2023-03-04T20:11:54.940Z,98078.08
2023-03-04T20:14:28.042Z,98074.23
2023-03-04T20:17:04.027Z,98076.46
2023-03-04T20:19:33.235Z,98073.95
2023-03-04T20:22:02.140Z,98075.42
2023-03-04T20:24:37.047Z,98083.63
2023-03-04T20:27:08.168Z,98077.23
2023-03-04T20:29:36.419Z,98073.48
2023-03-04T20:32:07.491Z,98069.88
2023-03-04T20:34:36.968Z,98073.08
2023-03-04T20:37:05.171Z,98072.15
2023-03-04T20:39:34.176Z,98065.90
2023-03-04T20:42:03.251Z,98071.88
2023-03-04T20:44:32.385Z,98077.52
2023-03-04T20:47:01.884Z,98107.41
2023-03-04T20:49:30.169Z,98180.30
2023-03-04T20:52:03.420Z,98201.70
2023-03-04T20:54:35.777Z,98211.54
2023-03-04T20:57:08.462Z,98224.73
2023-03-04T20:59:38.030Z,98226.94
2023-03-04T21:02:14.059Z,98230.78
2023-03-04T21:04:44.054Z,98235.70
2023-03-04T21:07:12.505Z,98269.02
2023-03-04T21:09:44.882Z,98246.28
2023-03-04T21:12:12.970Z,98250.27
2023-03-04T21:14:45.651Z,98244.76
2023-03-04T21:17:14.744Z,98241.22
2023-03-04T21:19:45.706Z,98245.11
2023-03-04T21:22:15.904Z,98244.03
2023-03-04T21:24:48.064Z,98240.82
2023-03-04T21:27:17.173Z,98231.61
2023-03-04T21:29:46.767Z,98223.25
2023-03-04T21:32:25.072Z,98231.70
2023-03-04T21:34:54.223Z,98229.77
2023-03-04T21:37:23.767Z,98235.48
2023-03-04T21:39:55.241Z,98239.80
2023-03-04T21:42:24.139Z,98244.33
2023-03-04T21:44:55.036Z,98239.84
2023-03-04T21:47:23.789Z,98239.08
2023-03-04T21:49:51.918Z,98245.55
2023-03-04T21:52:20.864Z,98242.02
2023-03-04T21:54:49.867Z,98236.23
2023-03-04T21:57:19.525Z,98240.20
2023-03-04T21:59:48.461Z,98232.26
2023-03-04T22:02:18.510Z,98232.60
2023-03-04T22:04:48.337Z,98238.86
2023-03-04T22:07:17.028Z,98223.55
2023-03-04T22:09:47.947Z,98225.24
2023-03-04T22:12:19.720Z,98228.29
2023-03-04T22:14:48.020Z,98220.39
2023-03-04T22:17:16.316Z,98225.67
2023-03-04T22:19:44.613Z,98223.39
2023-03-04T22:22:12.756Z,98232.11
2023-03-04T22:24:42.667Z,98234.43
2023-03-04T22:27:11.527Z,98235.91
2023-03-04T22:29:44.547Z,98238.88
2023-03-04T22:32:17.221Z,98231.70
2023-03-04T22:34:46.760Z,98228.25
2023-03-04T22:37:14.991Z,98241.20
2023-03-04T22:39:43.588Z,98244.63
2023-03-04T22:42:12.061Z,98239.06
2023-03-04T22:44:40.676Z,98252.23
2023-03-04T22:47:08.721Z,98262.60
2023-03-04T22:49:37.944Z,98266.05
2023-03-04T22:52:07.364Z,98266.20
2023-03-04T22:54:35.641Z,98275.23
2023-03-04T22:57:03.792Z,98279.41
2023-03-04T22:59:32.148Z,98288.35
2023-03-04T23:02:03.824Z,98293.75
2023-03-04T23:04:33.650Z,98296.63
2023-03-04T23:07:01.913Z,98310.75
2023-03-04T23:09:30.644Z,98293.77
2023-03-04T23:12:02.144Z,98304.17
2023-03-04T23:14:35.607Z,98304.36
2023-03-04T23:17:05.668Z,98305.88
2023-03-04T23:19:35.044Z,98309.73
2023-03-04T23:22:03.963Z,98308.61
2023-03-04T23:24:32.132Z,98316.61
2023-03-04T23:27:00.365Z,98311.63
2023-03-04T23:29:28.734Z,98334.92
2023-03-04T23:31:57.039Z,98324.79
2023-03-04T23:34:26.132Z,98321.88
2023-03-04T23:36:54.605Z,98327.82
2023-03-04T23:39:25.845Z,98329.20
2023-03-04T23:41:54.628Z,98324.73
2023-03-04T23:44:22.725Z,98327.08
2023-03-04T23:46:51.769Z,98317.89
2023-03-04T23:49:22.495Z,98317.00
2023-03-04T23:51:51.010Z,98316.16
2023-03-04T23:54:19.464Z,98329.26
2023-03-04T23:56:47.824Z,98323.38
2023-03-04T23:59:21.100Z,98332.80
